Pagrindinis puslapis
METAR-TAF:

METAR-TAF

Oro uostai :

Nasau, Bahamos

platuma: 25-03N, ilguma: 077-28W, Aukštis: 3 m

Dabartinis oras

Ataskaita buvo paskelbta 59 minutes, ne 15:00 UTC
Vėjas 14 kt iš Rytų su gūsio iki 24 kt
Temperatūra 28°C
Drėgmė 79%
Slėgis 1016 hPa
Matomumas 10 km arba daugiau
Mažai debesys ne aukštis 1800 ft
Išsisklaidę debesys ne aukštis 3000 ft
Su prošvaistėmis ne aukštis 6000 ft
Liūtis kaimynystėje

METAR: MYNN 201500Z 10014G24KT 9999 VCSH FEW018 SCT030 BKN060 28/24 A3001

Laikas: 11:59 (15:59 UTC)

Prognozė

Ataskaita buvo paskelbta 6 valandos ir 12 minutes, ne 09:47 UTC
Prognozė galioja nuo 20 metu 12 UTC su 21 metu 12 UTC
Vėjas 16 kt iš Rytų su gūsio iki 26 kt
Matomumas 10 km arba daugiau
Išsisklaidę debesys ne aukštis 2000 ft
Išsisklaidę debesys ne aukštis 4000 ft
Laikinai
tarp ir UTC
Tikimybė 30%
nuo 20 metu 18 UTC su 20 metu 21 UTC
Su prošvaistėmis ne aukštis 2000 ft
lietus

TAF: MYNN 200947Z 2012/2112 08016G26KT 9999 SCT020 SCT040 TEMPO PROB30 2018/2021 SHRA BKN020

Orai ataskaitas ir orų prognozės (METAR, TAF).

turimą stotys yra geltonos ir raudonos taškus žemėlapyje.

Perkelti pele per norėdami pamatyti stoties vardą.

Tada spustelėkite, norėdami matyti oro stebėjimo ir prognozės.

Norėdami pakeisti žemėlapį: spustelėkite ant žalios mygtukų su juodo kryžiaus žemyn,; žalią mygtuką su brūkšneliu, jei norite nutolinti; arba žalių rodyklių gretimoms žemėlapius.


METAR-TAF: